Terminal Aerodrome Forecast
Issued by NWS

Home | Current Version | Previous Version | Text Only | Print | Product List | Glossary On
Versions: 1 2 3 4 5 6 7 8 9 10 11 12
171
FTUS44 KEPZ 061138
TAFTCS
TAF
KTCS 061138Z 0612/0712 33006KT P6SM SKC
     FM061700 17005KT P6SM SKC
     FM070300 33005KT P6SM SKC=

USA.gov is the U.S. government's official web portal to all federal, state and local government web resources and services.